YPAD Airport Information

Runway Information
Runway 05 Length 10171 ft width 148 ft
Elevation 14 ft Threshold 493 ft Heading 50
Runway 23 Length 10171 ft Width 148 ft
Elevation 20 ft Threshold 0 ft Heading 230
Runway 12 Length 5420 ft width 148 ft
Elevation 14 ft Threshold 0 ft Heading 124
Runway 30 Length 5420 ft Width 148 ft
Elevation 14 ft Threshold 0 ft Heading 304
Airport Frequencies
Type A/D Name APP/DEP Frequency 118.2 MHZ
Type ATIS Name ATIS Frequency 116.4 MHZ
Type CLD Name CLNC DEL Frequency 126.1 MHZ
Type GND Name GND Frequency 121.7 MHZ
Type TWR Name TWR Frequency 120.5 MHZ
Airport Navaids
Type VOR-DME Name Adelaide Frequency 116400 KHZ
Type NDB Name Adelaide Frequency 362 KHZ
Type NDB Name Modbury Frequency 377 KHZ
Airport Weather Information & NOTAM
ADDS - METARS form results

(0807 UTC 22 May 2018)
 
METAR text: YPAD 220800Z 19011KT 7000 -DZ FEW018 SCT025 OVC040 15/12 Q1030
Conditions at: YPAD (ADELAIDE INTL AR, AU) observed 0800 UTC 22 May 2018
Temperature: 15.0°C (59°F)
Dewpoint: 12.0°C (54°F) [RH = 82%]
Pressure (altimeter): 30.41 inches Hg (1030.0 mb)
Winds: from the S (190 degrees) at 13 MPH (11 knots; 5.7 m/s)
Visibility: 4 miles (7 km)
Ceiling: 4000 feet AGL
Clouds: few clouds at 1800 feet AGL
scattered clouds at 2500 feet AGL
overcast cloud deck at 4000 feet AGL
Weather: -DZ  (light drizzle)

METAR text: YPAD 220755Z 20011KT 7000 -DZ FEW017 BKN025 OVC040 15/12 Q1030 FM0815 22010KT 9999 -SHRA FEW025 BKN035 FM0900 16005KT 9999 FEW020 BKN030
Conditions at: YPAD (ADELAIDE INTL AR, AU) observed 0755 UTC 22 May 2018
Temperature: 15.0°C (59°F)
Dewpoint: 12.0°C (54°F) [RH = 82%]
Pressure (altimeter): 30.41 inches Hg (1030.0 mb)
Winds: from the SSW (200 degrees) at 13 MPH (11 knots; 5.7 m/s)
Visibility: 4 miles (7 km)
Ceiling: 2500 feet AGL
Clouds: few clouds at 1700 feet AGL
broken clouds at 2500 feet AGL
overcast cloud deck at 4000 feet AGL
Weather: -DZ  (light drizzle)

METAR text: YPAD 220730Z 21012KT 9000 -DZ FEW018 BKN024 OVC040 16/11 Q1030 FM0900 16005KT 9999 FEW020 BKN030
Conditions at: YPAD (ADELAIDE INTL AR, AU) observed 0730 UTC 22 May 2018
Temperature: 16.0°C (61°F)
Dewpoint: 11.0°C (52°F) [RH = 72%]
Pressure (altimeter): 30.41 inches Hg (1030.0 mb)
Winds: from the SSW (210 degrees) at 14 MPH (12 knots; 6.2 m/s)
Visibility: 6 miles (9 km)
Ceiling: 2400 feet AGL
Clouds: few clouds at 1800 feet AGL
broken clouds at 2400 feet AGL
overcast cloud deck at 4000 feet AGL
Weather: -DZ  (light drizzle)